createdAt,value
2023-05-02T00:00:52.521Z,99.41
2023-05-02T00:01:52.556Z,99.52
2023-05-02T00:02:52.708Z,99.52
2023-05-02T00:03:52.701Z,99.52
2023-05-02T00:04:52.490Z,99.52
2023-05-02T00:05:52.489Z,99.52
2023-05-02T00:06:52.525Z,99.62
2023-05-02T00:07:52.486Z,99.72
2023-05-02T00:08:52.466Z,99.72
2023-05-02T00:09:52.441Z,99.72
2023-05-02T00:10:52.420Z,99.78
2023-05-02T00:11:52.421Z,99.47
2023-05-02T00:12:52.391Z,99.37
2023-05-02T00:13:52.375Z,99.37
2023-05-02T00:14:52.346Z,99.21
2023-05-02T00:15:52.357Z,99.21
2023-05-02T00:16:52.388Z,99.11
2023-05-02T00:17:52.392Z,99.21
2023-05-02T00:18:52.317Z,99.31
2023-05-02T00:19:52.315Z,99.41
2023-05-02T00:20:52.280Z,99.52
2023-05-02T00:21:52.294Z,99.52
2023-05-02T00:22:52.248Z,99.41
2023-05-02T00:23:52.327Z,99.57
2023-05-02T00:24:52.230Z,99.57
2023-05-02T00:25:52.229Z,99.57
2023-05-02T00:26:52.205Z,99.57
2023-05-02T00:27:52.226Z,99.57
2023-05-02T00:28:52.182Z,99.57
2023-05-02T00:29:52.186Z,99.57
2023-05-02T00:30:52.213Z,99.47
2023-05-02T00:31:52.147Z,99.37
2023-05-02T00:32:52.167Z,99.27
2023-05-02T00:33:52.135Z,99.16
2023-05-02T00:34:52.091Z,98.96
2023-05-02T00:35:52.100Z,98.96
2023-05-02T00:36:52.080Z,98.81
2023-05-02T00:37:52.074Z,98.71
2023-05-02T00:38:52.032Z,98.61
2023-05-02T00:39:52.037Z,98.50
2023-05-02T00:40:52.014Z,98.40
2023-05-02T00:41:52.012Z,98.30
2023-05-02T00:42:51.979Z,98.20
2023-05-02T00:43:52.006Z,97.99
2023-05-02T00:44:51.987Z,97.83
2023-05-02T00:45:52.019Z,97.63
2023-05-02T00:46:51.956Z,97.74
2023-05-02T00:47:51.958Z,97.83
2023-05-02T00:48:51.915Z,97.74
2023-05-02T00:49:51.920Z,97.83
2023-05-02T00:50:51.878Z,97.79
2023-05-02T00:51:51.875Z,97.79
2023-05-02T00:52:51.861Z,97.69
2023-05-02T00:53:51.846Z,97.63
2023-05-02T00:54:51.816Z,97.53
2023-05-02T00:55:51.823Z,97.63
2023-05-02T00:56:51.795Z,97.53
2023-05-02T00:57:51.821Z,97.53
2023-05-02T00:58:51.777Z,97.63
2023-05-02T00:59:51.753Z,97.74
2023-05-02T01:00:51.730Z,97.83
2023-05-02T01:01:51.770Z,97.74
2023-05-02T01:02:51.811Z,97.74
2023-05-02T01:03:51.948Z,97.63
2023-05-02T01:04:51.679Z,97.53
2023-05-02T01:05:51.709Z,97.53
2023-05-02T01:06:51.697Z,97.53
2023-05-02T01:07:51.686Z,97.63
2023-05-02T01:08:51.649Z,97.63
2023-05-02T01:09:51.640Z,97.63
2023-05-02T01:10:51.622Z,97.74
2023-05-02T01:11:51.612Z,97.74
2023-05-02T01:12:51.577Z,97.74
2023-05-02T01:13:51.582Z,97.74
2023-05-02T01:14:51.544Z,97.74
2023-05-02T01:15:51.663Z,97.83
2023-05-02T01:16:51.524Z,97.94
2023-05-02T01:17:51.575Z,97.83
2023-05-02T01:18:51.499Z,97.74
2023-05-02T01:19:51.518Z,97.78
2023-05-02T01:20:51.487Z,97.78
2023-05-02T01:21:51.490Z,97.88
2023-05-02T01:22:51.474Z,97.98
2023-05-02T01:23:51.452Z,97.98
2023-05-02T01:24:51.408Z,98.08
2023-05-02T01:25:51.454Z,98.08
2023-05-02T01:26:51.381Z,97.98
2023-05-02T01:27:51.411Z,98.08
2023-05-02T01:28:51.361Z,97.98
2023-05-02T01:29:51.428Z,97.98
2023-05-02T01:30:51.375Z,97.98
2023-05-02T01:31:51.468Z,97.98
2023-05-02T01:32:51.365Z,97.98
2023-05-02T01:33:51.336Z,97.88
2023-05-02T01:34:51.278Z,97.88
2023-05-02T01:35:51.306Z,97.98
2023-05-02T01:36:51.312Z,98.08
2023-05-02T01:37:51.283Z,98.08
2023-05-02T01:38:51.255Z,98.08
2023-05-02T01:39:51.272Z,98.08
2023-05-02T01:40:51.221Z,98.19
2023-05-02T01:41:51.239Z,98.08
2023-05-02T01:42:51.203Z,98.13
2023-05-02T01:43:51.197Z,98.13
2023-05-02T01:44:51.175Z,98.24
2023-05-02T01:45:51.183Z,98.24
2023-05-02T01:46:51.195Z,98.33
2023-05-02T01:47:51.181Z,98.24
2023-05-02T01:48:51.133Z,98.24
2023-05-02T01:49:51.120Z,98.33
2023-05-02T01:50:51.074Z,98.33
2023-05-02T01:51:51.136Z,98.44
2023-05-02T01:52:51.050Z,98.54
2023-05-02T01:53:51.070Z,98.65
2023-05-02T01:54:51.053Z,98.85
2023-05-02T01:55:51.058Z,98.95
2023-05-02T01:56:51.015Z,98.95
2023-05-02T01:57:51.023Z,99.05
2023-05-02T01:58:50.999Z,98.95
2023-05-02T01:59:50.995Z,98.95
2023-05-02T02:00:50.998Z,98.85
2023-05-02T02:01:50.954Z,98.74
2023-05-02T02:02:50.935Z,98.74
2023-05-02T02:03:50.989Z,98.65
2023-05-02T02:04:51.057Z,98.54
2023-05-02T02:05:50.885Z,98.38
2023-05-02T02:06:51.006Z,98.18
2023-05-02T02:07:50.863Z,98.28
2023-05-02T02:08:50.905Z,98.38
2023-05-02T02:09:50.853Z,98.58
2023-05-02T02:10:50.840Z,98.49
2023-05-02T02:11:50.801Z,98.69
2023-05-02T02:12:50.819Z,98.74
2023-05-02T02:13:50.766Z,98.74
2023-05-02T02:14:50.827Z,98.83
2023-05-02T02:15:50.754Z,98.74
2023-05-02T02:16:50.885Z,98.83
2023-05-02T02:17:50.780Z,99.04
2023-05-02T02:18:50.760Z,99.15
2023-05-02T02:19:50.690Z,99.25
2023-05-02T02:20:50.727Z,99.30
2023-05-02T02:21:50.685Z,99.41
2023-05-02T02:22:50.709Z,99.41
2023-05-02T02:23:50.644Z,99.41
2023-05-02T02:24:53.050Z,99.41
2023-05-02T02:25:50.660Z,99.30
2023-05-02T02:26:50.631Z,99.30
2023-05-02T02:27:50.592Z,99.30
2023-05-02T02:28:50.615Z,99.30
2023-05-02T02:29:50.555Z,99.15
2023-05-02T02:30:50.669Z,99.05
2023-05-02T02:31:50.553Z,98.95
2023-05-02T02:32:50.561Z,98.85
2023-05-02T02:33:50.629Z,98.69
2023-05-02T02:34:50.525Z,98.58
2023-05-02T02:35:50.527Z,98.58
2023-05-02T02:36:50.522Z,98.49
2023-05-02T02:37:50.471Z,98.49
2023-05-02T02:38:50.503Z,98.58
2023-05-02T02:39:50.419Z,98.49
2023-05-02T02:40:50.445Z,98.49
2023-05-02T02:41:50.432Z,98.49
2023-05-02T02:42:50.424Z,98.58
2023-05-02T02:43:50.391Z,98.69
2023-05-02T02:44:50.399Z,98.90
2023-05-02T02:45:50.371Z,98.99
2023-05-02T02:46:50.412Z,99.10
2023-05-02T02:47:50.384Z,99.20
2023-05-02T02:48:50.416Z,99.20
2023-05-02T02:49:50.293Z,99.30
2023-05-02T02:50:50.303Z,99.30
2023-05-02T02:51:50.267Z,99.15
2023-05-02T02:52:50.292Z,99.15
2023-05-02T02:53:50.242Z,99.15
2023-05-02T02:54:50.269Z,99.40
2023-05-02T02:55:50.212Z,99.70
2023-05-02T02:56:50.236Z,99.91
2023-05-02T02:57:50.205Z,99.96
2023-05-02T02:58:50.284Z,99.99
2023-05-02T02:59:50.156Z,99.99
2023-05-02T03:00:50.171Z,99.99
2023-05-02T03:01:50.193Z,99.99
2023-05-02T03:02:50.192Z,99.99
2023-05-02T03:03:50.165Z,99.99
2023-05-02T03:04:50.114Z,99.99
2023-05-02T03:05:50.091Z,99.99
2023-05-02T03:06:50.134Z,99.99
2023-05-02T03:07:50.109Z,99.99
2023-05-02T03:08:50.068Z,99.99
2023-05-02T03:09:50.068Z,99.99
2023-05-02T03:10:50.060Z,99.99
2023-05-02T03:11:50.017Z,99.99
2023-05-02T03:12:50.014Z,99.91
2023-05-02T03:13:49.999Z,99.71
2023-05-02T03:14:49.983Z,99.51
2023-05-02T03:15:50.103Z,99.41
2023-05-02T03:16:49.960Z,99.41
2023-05-02T03:17:49.973Z,99.51
2023-05-02T03:18:49.952Z,99.51
2023-05-02T03:19:49.903Z,99.61
2023-05-02T03:20:49.936Z,99.46
2023-05-02T03:21:49.897Z,99.46
2023-05-02T03:22:49.898Z,99.36
2023-05-02T03:23:49.863Z,99.26
2023-05-02T03:24:49.855Z,99.26
2023-05-02T03:25:49.816Z,99.15
2023-05-02T03:26:49.866Z,99.05
2023-05-02T03:27:49.800Z,98.95
2023-05-02T03:28:49.846Z,98.95
2023-05-02T03:29:49.761Z,98.85
2023-05-02T03:30:49.793Z,98.74
2023-05-02T03:31:49.793Z,98.85
2023-05-02T03:32:49.828Z,98.90
2023-05-02T03:33:49.731Z,98.99
2023-05-02T03:34:49.730Z,99.05
2023-05-02T03:35:49.700Z,99.15
2023-05-02T03:36:49.730Z,99.26
2023-05-02T03:37:49.661Z,99.26
2023-05-02T03:38:49.680Z,99.15
2023-05-02T03:39:49.636Z,98.95
2023-05-02T03:40:49.694Z,98.44
2023-05-02T03:41:49.630Z,98.38
2023-05-02T03:42:49.640Z,98.38
2023-05-02T03:43:49.604Z,98.28
2023-05-02T03:44:49.582Z,98.28
2023-05-02T03:45:49.559Z,98.28
2023-05-02T03:46:49.635Z,98.28
2023-05-02T03:47:49.635Z,98.28
2023-05-02T03:48:49.554Z,98.22
2023-05-02T03:49:49.533Z,98.43
2023-05-02T03:50:49.521Z,98.53
2023-05-02T03:51:49.489Z,98.74
2023-05-02T03:52:49.487Z,98.94
2023-05-02T03:53:49.483Z,99.04
2023-05-02T03:54:49.453Z,99.15
2023-05-02T03:55:49.420Z,99.25
2023-05-02T03:56:49.446Z,99.25
2023-05-02T03:57:49.427Z,99.25
2023-05-02T03:58:49.436Z,99.25
2023-05-02T03:59:49.371Z,99.15
2023-05-02T04:00:49.400Z,99.04
2023-05-02T04:01:49.379Z,99.04
2023-05-02T04:02:49.433Z,98.83
2023-05-02T04:03:49.478Z,98.74
2023-05-02T04:04:49.362Z,98.83
2023-05-02T04:05:49.298Z,98.74
2023-05-02T04:06:49.479Z,98.74
2023-05-02T04:07:49.257Z,98.74
2023-05-02T04:08:49.276Z,98.83
2023-05-02T04:09:49.278Z,98.74
2023-05-02T04:10:49.263Z,98.74
2023-05-02T04:11:49.218Z,98.74
2023-05-02T04:12:49.244Z,98.74
2023-05-02T04:13:50.472Z,98.63
2023-05-02T04:14:49.261Z,98.53
2023-05-02T04:15:49.166Z,98.33
2023-05-02T04:16:49.226Z,98.33
2023-05-02T04:17:49.188Z,98.33
2023-05-02T04:18:49.159Z,98.37
2023-05-02T04:19:49.132Z,98.47
2023-05-02T04:20:49.161Z,98.47
2023-05-02T04:21:49.097Z,98.58
2023-05-02T04:22:49.097Z,98.58
2023-05-02T04:23:49.069Z,98.58
2023-05-02T04:24:49.074Z,98.68
2023-05-02T04:25:49.054Z,98.68
2023-05-02T04:26:49.067Z,98.88
2023-05-02T04:27:49.029Z,98.99
2023-05-02T04:28:49.024Z,99.09
2023-05-02T04:29:48.997Z,99.09
2023-05-02T04:30:49.030Z,99.09
2023-05-02T04:31:48.954Z,99.19
2023-05-02T04:32:49.063Z,99.19
2023-05-02T04:33:48.961Z,99.19
2023-05-02T04:34:48.933Z,99.19
2023-05-02T04:35:48.910Z,99.19
2023-05-02T04:36:48.940Z,99.19
2023-05-02T04:37:48.877Z,99.19
2023-05-02T04:38:48.876Z,99.15
2023-05-02T04:39:48.859Z,99.04
2023-05-02T04:40:48.865Z,98.94
2023-05-02T04:41:48.822Z,98.78
2023-05-02T04:42:48.839Z,98.78
2023-05-02T04:43:48.788Z,98.68
2023-05-02T04:44:48.822Z,98.58
2023-05-02T04:45:48.814Z,98.58
2023-05-02T04:46:48.816Z,98.37
2023-05-02T04:47:48.782Z,98.27
2023-05-02T04:48:48.759Z,98.37
2023-05-02T04:49:48.715Z,98.58
2023-05-02T04:50:48.729Z,98.68
2023-05-02T04:51:48.700Z,98.88
2023-05-02T04:52:48.707Z,99.09
2023-05-02T04:53:48.662Z,99.29
2023-05-02T04:54:48.700Z,99.29
2023-05-02T04:55:48.640Z,99.19
2023-05-02T04:56:48.681Z,99.19
2023-05-02T04:57:48.644Z,99.25
2023-05-02T04:58:48.653Z,99.25
2023-05-02T04:59:48.599Z,99.25
2023-05-02T05:00:48.596Z,99.15
2023-05-02T05:01:48.610Z,99.15
2023-05-02T05:02:48.715Z,99.04
2023-05-02T05:03:48.662Z,98.94
2023-05-02T05:04:48.566Z,98.83
2023-05-02T05:05:48.689Z,98.83
2023-05-02T05:06:48.771Z,98.74
2023-05-02T05:07:48.482Z,98.63
2023-05-02T05:08:48.503Z,98.74
2023-05-02T05:09:48.465Z,98.74
2023-05-02T05:10:48.465Z,98.74
2023-05-02T05:11:48.474Z,98.74
2023-05-02T05:12:48.455Z,98.74
2023-05-02T05:13:48.398Z,98.94
2023-05-02T05:14:48.470Z,98.99
2023-05-02T05:15:48.407Z,98.99
2023-05-02T05:16:48.471Z,99.09
2023-05-02T05:17:48.435Z,99.25
2023-05-02T05:18:48.350Z,99.25
2023-05-02T05:19:48.339Z,99.25
2023-05-02T05:20:48.336Z,99.35
2023-05-02T05:21:48.292Z,99.35
2023-05-02T05:22:48.342Z,99.35
2023-05-02T05:23:48.283Z,99.25
2023-05-02T05:24:48.279Z,99.35
2023-05-02T05:25:48.242Z,99.35
2023-05-02T05:26:48.264Z,99.30
2023-05-02T05:27:48.246Z,99.30
2023-05-02T05:28:48.239Z,99.30
2023-05-02T05:29:48.205Z,99.30
2023-05-02T05:30:48.200Z,99.30
2023-05-02T05:31:48.241Z,99.10
2023-05-02T05:32:48.202Z,99.10
2023-05-02T05:33:48.187Z,98.99
2023-05-02T05:34:48.172Z,98.99
2023-05-02T05:35:48.101Z,98.90
2023-05-02T05:36:48.137Z,98.79
2023-05-02T05:37:48.127Z,98.79
2023-05-02T05:38:48.091Z,98.85
2023-05-02T05:39:48.057Z,98.95
2023-05-02T05:40:48.101Z,98.95
2023-05-02T05:41:48.057Z,98.95
2023-05-02T05:42:48.055Z,98.85
2023-05-02T05:43:48.019Z,98.74
2023-05-02T05:44:48.016Z,98.65
2023-05-02T05:45:47.979Z,98.54
2023-05-02T05:46:48.035Z,98.54
2023-05-02T05:47:48.007Z,98.54
2023-05-02T05:48:47.960Z,98.54
2023-05-02T05:49:47.924Z,98.74
2023-05-02T05:50:47.937Z,98.95
2023-05-02T05:51:48.012Z,99.05
2023-05-02T05:52:47.921Z,99.05
2023-05-02T05:53:47.894Z,98.95
2023-05-02T05:54:47.908Z,98.95
2023-05-02T05:55:47.855Z,99.05
2023-05-02T05:56:47.932Z,99.15
2023-05-02T05:57:47.831Z,99.26
2023-05-02T05:58:47.841Z,99.26
2023-05-02T05:59:47.833Z,99.31
2023-05-02T06:00:47.833Z,99.31
2023-05-02T06:01:47.773Z,99.31
2023-05-02T06:02:47.858Z,99.21
2023-05-02T06:03:48.077Z,99.31
2023-05-02T06:04:47.861Z,99.41
2023-05-02T06:05:47.716Z,99.41
2023-05-02T06:06:47.792Z,99.52
2023-05-02T06:07:47.679Z,99.52
2023-05-02T06:08:47.741Z,99.52
2023-05-02T06:09:47.723Z,99.41
2023-05-02T06:10:47.644Z,99.31
2023-05-02T06:11:47.690Z,99.11
2023-05-02T06:12:49.276Z,98.96
2023-05-02T06:13:47.642Z,98.75
2023-05-02T06:14:47.618Z,98.45
2023-05-02T06:15:47.665Z,98.45
2023-05-02T06:16:47.576Z,98.45
2023-05-02T06:17:47.637Z,98.45
2023-05-02T06:18:47.561Z,98.55
2023-05-02T06:19:47.564Z,98.55
2023-05-02T06:20:47.553Z,98.50
2023-05-02T06:21:47.593Z,98.40
2023-05-02T06:22:47.535Z,98.40
2023-05-02T06:23:47.497Z,98.30
2023-05-02T06:24:47.503Z,98.20
2023-05-02T06:25:47.510Z,97.79
2023-05-02T06:26:47.475Z,97.79
2023-05-02T06:27:47.482Z,97.69
2023-05-02T06:28:47.469Z,97.58
2023-05-02T06:29:47.414Z,97.58
2023-05-02T06:30:47.417Z,97.49
2023-05-02T06:31:47.457Z,97.38
2023-05-02T06:32:47.416Z,97.38
2023-05-02T06:33:47.354Z,97.38
2023-05-02T06:34:47.356Z,97.28
2023-05-02T06:35:47.340Z,97.38
2023-05-02T06:36:47.334Z,97.44
2023-05-02T06:37:47.345Z,97.44
2023-05-02T06:38:47.313Z,97.44
2023-05-02T06:39:47.288Z,97.33
2023-05-02T06:40:47.301Z,97.44
2023-05-02T06:41:47.284Z,97.49
2023-05-02T06:42:47.267Z,97.60
2023-05-02T06:43:47.316Z,97.19
2023-05-02T06:44:47.219Z,96.68
2023-05-02T06:45:47.219Z,96.78
2023-05-02T06:46:47.297Z,96.98
2023-05-02T06:47:47.205Z,97.19
2023-05-02T06:48:47.187Z,97.19
2023-05-02T06:49:47.144Z,96.98
2023-05-02T06:50:47.160Z,97.19
2023-05-02T06:51:47.115Z,97.49
2023-05-02T06:52:47.114Z,97.39
2023-05-02T06:53:47.123Z,97.29
2023-05-02T06:54:47.099Z,96.98
2023-05-02T06:55:47.054Z,96.78
2023-05-02T06:56:47.098Z,96.68
2023-05-02T06:57:47.033Z,96.47
2023-05-02T06:58:47.061Z,96.37
2023-05-02T06:59:47.000Z,96.17
2023-05-02T07:00:47.073Z,96.37
2023-05-02T07:01:46.984Z,96.47
2023-05-02T07:02:47.033Z,96.22
2023-05-02T07:03:46.984Z,96.12
2023-05-02T07:04:47.131Z,96.12
2023-05-02T07:05:46.925Z,96.22
2023-05-02T07:06:46.992Z,95.97
2023-05-02T07:07:46.922Z,95.77
2023-05-02T07:08:46.942Z,95.77
2023-05-02T07:09:46.858Z,95.77
2023-05-02T07:10:46.917Z,95.77
2023-05-02T07:11:46.841Z,95.57
2023-05-02T07:12:46.878Z,95.06
2023-05-02T07:13:46.814Z,94.75
2023-05-02T07:14:46.815Z,94.85
2023-05-02T07:15:46.791Z,94.85
2023-05-02T07:16:46.876Z,94.81
2023-05-02T07:17:46.966Z,94.81
2023-05-02T07:18:46.772Z,95.01
2023-05-02T07:19:46.738Z,94.97
2023-05-02T07:20:46.754Z,94.97
2023-05-02T07:21:46.715Z,94.66
2023-05-02T07:22:46.769Z,94.31
2023-05-02T07:23:46.693Z,94.11
2023-05-02T07:24:46.750Z,93.80
2023-05-02T07:25:46.658Z,93.60
2023-05-02T07:26:46.659Z,93.45
2023-05-02T07:27:46.632Z,93.25
2023-05-02T07:28:46.653Z,92.74
2023-05-02T07:29:46.618Z,92.19
2023-05-02T07:30:46.637Z,91.58
2023-05-02T07:31:46.635Z,90.36
2023-05-02T07:32:46.649Z,89.81
2023-05-02T07:33:46.561Z,89.30
2023-05-02T07:34:46.564Z,89.09
2023-05-02T07:35:46.563Z,89.00
2023-05-02T07:36:46.551Z,89.26
2023-05-02T07:37:46.529Z,88.75
2023-05-02T07:38:46.552Z,88.13
2023-05-02T07:39:46.484Z,88.44
2023-05-02T07:40:46.485Z,88.34
2023-05-02T07:41:46.453Z,87.84
2023-05-02T07:42:46.482Z,86.92
2023-05-02T07:43:46.431Z,87.32
2023-05-02T07:44:46.426Z,86.55
2023-05-02T07:45:46.456Z,86.35
2023-05-02T07:46:46.501Z,87.87
2023-05-02T07:47:46.447Z,87.37
2023-05-02T07:48:46.387Z,86.86
2023-05-02T07:49:46.374Z,87.57
2023-05-02T07:50:46.348Z,87.87
2023-05-02T07:51:46.355Z,86.96
2023-05-02T07:52:46.345Z,85.68
2023-05-02T07:53:46.296Z,84.86
2023-05-02T07:54:46.307Z,85.61
2023-05-02T07:55:46.262Z,85.92
2023-05-02T07:56:46.297Z,86.83
2023-05-02T07:57:46.237Z,86.94
2023-05-02T07:58:46.256Z,86.22
2023-05-02T07:59:46.218Z,87.04
2023-05-02T08:00:46.237Z,87.14
2023-05-02T08:01:46.182Z,86.74
2023-05-02T08:02:46.319Z,86.94
2023-05-02T08:03:46.375Z,87.45
2023-05-02T08:04:46.241Z,86.53
2023-05-02T08:05:46.128Z,86.53
2023-05-02T08:06:46.229Z,86.83
2023-05-02T08:07:46.128Z,87.85
2023-05-02T08:08:46.125Z,87.90
2023-05-02T08:09:46.090Z,88.40
2023-05-02T08:10:46.121Z,88.40
2023-05-02T08:11:46.061Z,88.20
2023-05-02T08:12:46.060Z,88.67
2023-05-02T08:13:46.062Z,86.63
2023-05-02T08:14:46.088Z,87.00
2023-05-02T08:15:46.067Z,88.32
2023-05-02T08:16:46.699Z,87.57
2023-05-02T08:17:45.994Z,86.45
2023-05-02T08:18:45.973Z,86.51
2023-05-02T08:19:45.984Z,85.76
2023-05-02T08:20:46.041Z,85.25
2023-05-02T08:21:45.919Z,84.13
2023-05-02T08:22:45.925Z,84.50
2023-05-02T08:23:45.913Z,83.42
2023-05-02T08:24:45.930Z,84.03
2023-05-02T08:25:45.893Z,84.13
2023-05-02T08:26:45.876Z,84.91
2023-05-02T08:27:45.851Z,82.40
2023-05-02T08:28:45.856Z,81.90
2023-05-02T08:29:45.816Z,82.40
2023-05-02T08:30:45.903Z,82.31
2023-05-02T08:31:45.849Z,83.38
2023-05-02T08:32:45.847Z,82.78
2023-05-02T08:33:45.763Z,82.64
2023-05-02T08:34:45.787Z,83.51
2023-05-02T08:35:45.772Z,83.37
2023-05-02T08:36:45.812Z,82.15
2023-05-02T08:37:45.713Z,82.11
2023-05-02T08:38:45.787Z,79.03
2023-05-02T08:39:45.697Z,78.83
2023-05-02T08:40:45.721Z,80.01
2023-05-02T08:41:45.687Z,80.68
2023-05-02T08:42:45.710Z,79.16
2023-05-02T08:43:45.632Z,78.83
2023-05-02T08:44:45.659Z,81.87
2023-05-02T08:45:45.611Z,80.29
2023-05-02T08:46:45.645Z,80.35
2023-05-02T08:47:45.629Z,81.87
2023-05-02T08:48:45.580Z,79.60
2023-05-02T08:49:45.549Z,77.98
2023-05-02T08:50:45.638Z,76.26
2023-05-02T08:51:45.552Z,76.09
2023-05-02T08:52:45.558Z,76.57
2023-05-02T08:53:45.508Z,77.86
2023-05-02T08:54:45.515Z,79.38
2023-05-02T08:55:45.507Z,80.08
2023-05-02T08:56:45.484Z,80.99
2023-05-02T08:57:45.467Z,83.03
2023-05-02T08:58:45.487Z,81.67
2023-05-02T08:59:45.433Z,80.25
2023-05-02T09:00:45.444Z,81.81
2023-05-02T09:01:45.553Z,80.29
2023-05-02T09:02:45.484Z,79.74
2023-05-02T09:03:45.363Z,78.97
2023-05-02T09:04:45.553Z,80.79
2023-05-02T09:05:45.332Z,82.11
2023-05-02T09:06:45.495Z,79.47
2023-05-02T09:07:45.349Z,78.16
2023-05-02T09:08:45.388Z,78.66
2023-05-02T09:09:45.284Z,79.31
2023-05-02T09:10:45.317Z,78.70
2023-05-02T09:11:45.260Z,80.83
2023-05-02T09:12:45.280Z,80.87
2023-05-02T09:13:45.249Z,82.12
2023-05-02T09:14:45.269Z,81.31
2023-05-02T09:15:45.221Z,80.80
2023-05-02T09:16:45.304Z,81.72
2023-05-02T09:17:45.204Z,82.78
2023-05-02T09:18:45.439Z,82.17
2023-05-02T09:19:45.164Z,82.78
2023-05-02T09:20:45.167Z,83.69
2023-05-02T09:21:45.133Z,81.41
2023-05-02T09:22:45.140Z,80.71
2023-05-02T09:23:45.146Z,81.21
2023-05-02T09:24:45.114Z,82.12
2023-05-02T09:25:45.104Z,81.99
2023-05-02T09:26:45.088Z,80.87
2023-05-02T09:27:45.058Z,79.79
2023-05-02T09:28:45.114Z,79.49
2023-05-02T09:29:45.020Z,79.45
2023-05-02T09:30:45.060Z,79.38
2023-05-02T09:31:55.569Z,76.74
2023-05-02T09:32:45.114Z,78.46
2023-05-02T09:33:45.012Z,77.11
2023-05-02T09:34:44.986Z,75.96
2023-05-02T09:35:44.971Z,78.45
2023-05-02T09:36:44.995Z,76.73
2023-05-02T09:37:44.917Z,75.72
2023-05-02T09:38:44.932Z,75.68
2023-05-02T09:39:44.901Z,75.01
2023-05-02T09:40:44.918Z,74.64
2023-05-02T09:41:44.864Z,76.56
2023-05-02T09:42:44.877Z,76.67
2023-05-02T09:43:44.866Z,77.28
2023-05-02T09:44:44.898Z,77.58
2023-05-02T09:45:44.981Z,77.17
2023-05-02T09:46:44.881Z,77.17
2023-05-02T09:47:44.883Z,77.58
2023-05-02T09:48:44.798Z,79.20
2023-05-02T09:49:44.977Z,77.68
2023-05-02T09:50:44.763Z,79.87
2023-05-02T09:51:44.766Z,81.18
2023-05-02T09:52:44.929Z,80.58
2023-05-02T09:53:44.716Z,80.98
2023-05-02T09:54:44.718Z,78.55
2023-05-02T09:55:44.694Z,77.75
2023-05-02T09:56:44.710Z,76.16
2023-05-02T09:57:44.662Z,77.88
2023-05-02T09:58:44.674Z,77.34
2023-05-02T09:59:44.668Z,78.25
2023-05-02T10:00:44.678Z,77.30
2023-05-02T10:01:44.677Z,75.04
2023-05-02T10:02:44.661Z,73.49
2023-05-02T10:03:44.589Z,72.85
2023-05-02T10:04:44.841Z,73.86
2023-05-02T10:05:44.560Z,73.46
2023-05-02T10:06:44.635Z,73.75
2023-05-02T10:07:44.534Z,73.15
2023-05-02T10:08:44.531Z,73.25
2023-05-02T10:09:44.543Z,73.19
2023-05-02T10:10:44.539Z,73.49
2023-05-02T10:11:44.466Z,73.19
2023-05-02T10:12:44.477Z,73.49
2023-05-02T10:13:44.453Z,73.90
2023-05-02T10:14:44.476Z,74.30
2023-05-02T10:15:44.468Z,74.40
2023-05-02T10:16:44.452Z,76.02
2023-05-02T10:17:44.428Z,76.86
2023-05-02T10:18:44.408Z,76.09
2023-05-02T10:19:44.421Z,77.44
2023-05-02T10:20:44.381Z,79.36
2023-05-02T10:21:44.354Z,79.91
2023-05-02T10:22:44.360Z,81.12
2023-05-02T10:23:44.311Z,81.93
2023-05-02T10:24:44.336Z,80.35
2023-05-02T10:25:44.361Z,79.34
2023-05-02T10:26:44.298Z,78.19
2023-05-02T10:27:44.266Z,76.87
2023-05-02T10:28:44.260Z,76.32
2023-05-02T10:29:44.262Z,75.89
2023-05-02T10:30:44.285Z,74.43
2023-05-02T10:31:44.889Z,73.52
2023-05-02T10:32:44.288Z,74.60
2023-05-02T10:33:44.185Z,71.64
2023-05-02T10:34:44.198Z,69.11
2023-05-02T10:35:44.173Z,69.51
2023-05-02T10:36:44.147Z,68.51
2023-05-02T10:37:44.147Z,68.54
2023-05-02T10:38:44.146Z,69.45
2023-05-02T10:39:44.145Z,70.25
2023-05-02T10:40:44.155Z,70.56
2023-05-02T10:41:44.101Z,70.56
2023-05-02T10:42:44.071Z,71.06
2023-05-02T10:43:44.069Z,72.08
2023-05-02T10:44:44.026Z,72.04
2023-05-02T10:45:44.164Z,71.53
2023-05-02T10:46:44.057Z,72.85
2023-05-02T10:47:44.119Z,71.44
2023-05-02T10:48:43.983Z,73.39
2023-05-02T10:49:43.979Z,74.16
2023-05-02T10:50:43.946Z,73.35
2023-05-02T10:51:43.995Z,71.67
2023-05-02T10:52:43.944Z,73.90
2023-05-02T10:53:43.974Z,75.41
2023-05-02T10:54:43.974Z,77.53
2023-05-02T10:55:43.907Z,76.76
2023-05-02T10:56:43.872Z,73.43
2023-05-02T10:57:43.912Z,73.43
2023-05-02T10:58:43.878Z,75.14
2023-05-02T10:59:43.851Z,74.84
2023-05-02T11:00:43.839Z,71.60
2023-05-02T11:01:43.823Z,73.22
2023-05-02T11:02:43.888Z,73.52
2023-05-02T11:03:43.854Z,72.68
2023-05-02T11:04:43.765Z,71.77
2023-05-02T11:05:43.791Z,70.42
2023-05-02T11:06:43.768Z,68.80
2023-05-02T11:07:43.756Z,70.89
2023-05-02T11:08:43.716Z,74.49
2023-05-02T11:09:43.734Z,72.38
2023-05-02T11:10:43.714Z,70.39
2023-05-02T11:11:43.908Z,69.98
2023-05-02T11:12:43.987Z,69.98
2023-05-02T11:13:43.665Z,69.98
2023-05-02T11:14:43.729Z,68.27
2023-05-02T11:15:43.653Z,68.80
2023-05-02T11:16:43.690Z,70.62
2023-05-02T11:17:43.683Z,70.62
2023-05-02T11:18:43.568Z,71.37
2023-05-02T11:19:43.804Z,69.85
2023-05-02T11:20:43.541Z,72.38
2023-05-02T11:21:43.746Z,74.33
2023-05-02T11:22:43.531Z,73.12
2023-05-02T11:23:43.579Z,73.72
2023-05-02T11:24:43.489Z,71.84
2023-05-02T11:25:43.547Z,72.34
2023-05-02T11:26:43.484Z,72.34
2023-05-02T11:27:43.501Z,71.84
2023-05-02T11:28:43.477Z,71.13
2023-05-02T11:29:43.456Z,71.94
2023-05-02T11:30:44.022Z,73.36
2023-05-02T11:31:43.512Z,72.95
2023-05-02T11:32:43.449Z,71.84
2023-05-02T11:33:43.439Z,73.96
2023-05-02T11:34:43.365Z,73.96
2023-05-02T11:35:43.371Z,72.14
2023-05-02T11:36:43.384Z,72.85
2023-05-02T11:37:43.367Z,72.99
2023-05-02T11:38:43.322Z,72.78
2023-05-02T11:39:43.513Z,72.38
2023-05-02T11:40:43.283Z,74.81
2023-05-02T11:41:43.324Z,71.67
2023-05-02T11:42:43.252Z,71.00
2023-05-02T11:43:43.260Z,74.54
2023-05-02T11:44:43.228Z,73.32
2023-05-02T11:45:43.275Z,72.72
2023-05-02T11:46:43.408Z,72.11
2023-05-02T11:47:43.290Z,71.91
2023-05-02T11:48:43.346Z,71.97
2023-05-02T11:49:43.211Z,72.38
2023-05-02T11:50:48.562Z,71.37
2023-05-02T11:51:43.173Z,71.37
2023-05-02T11:52:43.172Z,73.90
2023-05-02T11:53:43.164Z,72.78
2023-05-02T11:54:43.099Z,73.29
2023-05-02T11:55:43.156Z,72.78
2023-05-02T11:56:43.069Z,71.26
2023-05-02T11:57:43.519Z,72.78
2023-05-02T11:58:43.094Z,73.09
2023-05-02T11:59:43.066Z,72.48
2023-05-02T12:00:43.037Z,71.70
2023-05-02T12:01:43.050Z,73.12
2023-05-02T12:02:43.108Z,72.81
2023-05-02T12:03:43.251Z,72.99
2023-05-02T12:04:43.034Z,71.26
2023-05-02T12:05:43.082Z,72.28
2023-05-02T12:06:42.988Z,74.91
2023-05-02T12:07:42.972Z,72.99
2023-05-02T12:08:42.965Z,73.09
2023-05-02T12:09:42.937Z,73.59
2023-05-02T12:10:42.889Z,72.88
2023-05-02T12:11:42.903Z,72.01
2023-05-02T12:12:42.868Z,71.80
2023-05-02T12:13:42.935Z,72.11
2023-05-02T12:14:43.408Z,71.30
2023-05-02T12:15:42.957Z,72.41
2023-05-02T12:16:42.875Z,72.88
2023-05-02T12:17:42.880Z,73.19
2023-05-02T12:18:42.841Z,71.77
2023-05-02T12:19:42.840Z,72.78
2023-05-02T12:20:42.772Z,71.77
2023-05-02T12:21:42.782Z,71.47
2023-05-02T12:22:42.760Z,72.38
2023-05-02T12:23:42.780Z,69.85
2023-05-02T12:24:42.744Z,70.36
2023-05-02T12:25:42.748Z,70.76
2023-05-02T12:26:42.707Z,70.36
2023-05-02T12:27:42.719Z,69.44
2023-05-02T12:28:42.806Z,70.96
2023-05-02T12:29:42.669Z,71.47
2023-05-02T12:30:42.669Z,70.05
2023-05-02T12:31:42.681Z,71.47
2023-05-02T12:32:42.812Z,70.56
2023-05-02T12:33:42.648Z,68.94
2023-05-02T12:34:42.603Z,70.36
2023-05-02T12:35:42.615Z,71.77
2023-05-02T12:36:42.562Z,70.22
2023-05-02T12:37:42.559Z,70.02
2023-05-02T12:38:42.510Z,70.42
2023-05-02T12:39:42.730Z,69.24
2023-05-02T12:40:42.554Z,69.85
2023-05-02T12:41:42.569Z,70.96
2023-05-02T12:42:42.469Z,71.88
2023-05-02T12:43:42.496Z,69.65
2023-05-02T12:44:42.462Z,69.95
2023-05-02T12:45:42.493Z,71.06
2023-05-02T12:46:42.484Z,71.16
2023-05-02T12:47:42.440Z,70.86
2023-05-02T12:48:43.298Z,70.65
2023-05-02T12:49:42.399Z,70.05
2023-05-02T12:50:42.674Z,70.76
2023-05-02T12:51:42.378Z,69.65
2023-05-02T12:52:42.346Z,69.54